createdAt,value
2022-08-24T00:00:51.787Z,100.00
2022-08-24T00:03:22.312Z,100.00
2022-08-24T00:05:53.674Z,100.00
2022-08-24T00:08:24.192Z,100.00
2022-08-24T00:10:55.134Z,100.00
2022-08-24T00:13:25.150Z,100.00
2022-08-24T00:16:02.458Z,100.00
2022-08-24T00:18:33.553Z,100.00
2022-08-24T00:21:04.743Z,100.00
2022-08-24T00:23:35.294Z,100.00
2022-08-24T00:26:05.366Z,100.00
2022-08-24T00:28:36.223Z,100.00
2022-08-24T00:31:09.454Z,100.00
2022-08-24T00:33:40.960Z,100.00
2022-08-24T00:36:11.507Z,100.00
2022-08-24T00:38:41.491Z,100.00
2022-08-24T00:41:11.524Z,100.00
2022-08-24T00:43:41.514Z,100.00
2022-08-24T00:46:31.133Z,100.00
2022-08-24T00:49:09.477Z,100.00
2022-08-24T00:51:46.173Z,100.00
2022-08-24T00:54:20.888Z,100.00
2022-08-24T00:56:56.905Z,100.00
2022-08-24T00:59:32.662Z,100.00
2022-08-24T01:02:15.225Z,100.00
2022-08-24T01:04:55.090Z,100.00
2022-08-24T01:07:27.578Z,100.00
2022-08-24T01:10:02.544Z,100.00
2022-08-24T01:12:37.293Z,100.00
2022-08-24T01:15:13.199Z,100.00
2022-08-24T01:17:59.022Z,100.00
2022-08-24T01:20:29.377Z,100.00
2022-08-24T01:23:09.459Z,100.00
2022-08-24T01:25:46.075Z,100.00
2022-08-24T01:28:27.215Z,100.00
2022-08-24T01:30:58.666Z,100.00
2022-08-24T01:33:34.199Z,100.00
2022-08-24T01:36:12.480Z,100.00
2022-08-24T01:38:43.269Z,100.00
2022-08-24T01:41:15.901Z,100.00
2022-08-24T01:43:46.189Z,100.00
2022-08-24T01:46:16.279Z,100.00
2022-08-24T01:48:46.896Z,100.00
2022-08-24T01:51:16.883Z,100.00
2022-08-24T01:53:46.932Z,100.00
2022-08-24T01:56:20.677Z,100.00
2022-08-24T01:58:52.482Z,100.00
2022-08-24T02:01:22.975Z,100.00
2022-08-24T02:03:53.141Z,100.00
2022-08-24T02:06:24.532Z,100.00
2022-08-24T02:08:54.851Z,100.00
2022-08-24T02:11:27.694Z,100.00
2022-08-24T02:14:01.046Z,100.00
2022-08-24T02:16:31.630Z,100.00
2022-08-24T02:19:02.003Z,100.00
2022-08-24T02:21:32.100Z,100.00
2022-08-24T02:24:02.489Z,100.00
2022-08-24T02:26:35.137Z,100.00
2022-08-24T02:29:05.233Z,100.00
2022-08-24T02:31:37.016Z,100.00
2022-08-24T02:34:07.904Z,100.00
2022-08-24T02:36:37.964Z,100.00
2022-08-24T02:39:10.061Z,100.00
2022-08-24T02:41:43.595Z,100.00
2022-08-24T02:44:13.819Z,100.00
2022-08-24T02:46:45.120Z,100.00
2022-08-24T02:49:15.747Z,100.00
2022-08-24T02:51:49.569Z,100.00
2022-08-24T02:54:22.923Z,100.00
2022-08-24T02:56:58.180Z,100.00
2022-08-24T02:59:28.231Z,100.00
2022-08-24T03:01:58.369Z,100.00
2022-08-24T03:04:29.439Z,100.00
2022-08-24T03:06:59.645Z,100.00
2022-08-24T03:09:29.634Z,100.00
2022-08-24T03:12:03.897Z,100.00
2022-08-24T03:14:35.821Z,100.00
2022-08-24T03:17:06.883Z,100.00
2022-08-24T03:19:36.941Z,100.00
2022-08-24T03:22:07.613Z,100.00
2022-08-24T03:24:37.870Z,100.00
2022-08-24T03:27:10.484Z,100.00
2022-08-24T03:29:40.719Z,100.00
2022-08-24T03:32:10.885Z,100.00
2022-08-24T03:34:41.031Z,100.00
2022-08-24T03:37:11.198Z,100.00
2022-08-24T03:39:41.301Z,100.00
2022-08-24T03:42:13.992Z,100.00
2022-08-24T03:44:44.295Z,100.00
2022-08-24T03:47:14.519Z,100.00
2022-08-24T03:49:45.070Z,100.00
2022-08-24T03:52:15.572Z,100.00
2022-08-24T03:54:47.306Z,100.00
2022-08-24T03:57:19.874Z,100.00
2022-08-24T03:59:49.877Z,100.00
2022-08-24T04:02:20.013Z,100.00
2022-08-24T04:04:50.145Z,100.00
2022-08-24T04:07:20.219Z,100.00
2022-08-24T04:09:50.297Z,100.00
2022-08-24T04:12:23.424Z,100.00
2022-08-24T04:14:55.941Z,100.00
2022-08-24T04:17:27.200Z,100.00
2022-08-24T04:20:00.181Z,100.00
2022-08-24T04:22:35.364Z,100.00
2022-08-24T04:25:09.263Z,100.00
2022-08-24T04:27:44.308Z,100.00
2022-08-24T04:30:16.865Z,100.00
2022-08-24T04:33:07.252Z,100.00
2022-08-24T04:35:41.659Z,100.00
2022-08-24T04:38:12.527Z,100.00
2022-08-24T04:40:49.920Z,100.00
2022-08-24T04:43:23.648Z,100.00
2022-08-24T04:45:53.737Z,100.00
2022-08-24T04:48:24.235Z,100.00
2022-08-24T04:50:54.300Z,100.00
2022-08-24T04:53:25.744Z,100.00
2022-08-24T04:55:55.790Z,100.00
2022-08-24T04:58:33.005Z,100.00
2022-08-24T05:01:03.262Z,100.00
2022-08-24T05:03:33.380Z,100.00
2022-08-24T05:06:03.730Z,100.00
2022-08-24T05:08:34.696Z,100.00
2022-08-24T05:11:09.406Z,100.00
2022-08-24T05:13:42.377Z,100.00
2022-08-24T05:16:17.846Z,100.00
2022-08-24T05:18:49.099Z,100.00
2022-08-24T05:21:25.030Z,100.00
2022-08-24T05:23:57.789Z,100.00
2022-08-24T05:26:34.088Z,100.00
2022-08-24T05:29:06.917Z,100.00
2022-08-24T05:31:52.451Z,100.00
2022-08-24T05:34:22.576Z,100.00
2022-08-24T05:36:53.816Z,100.00
2022-08-24T05:39:43.826Z,100.00
2022-08-24T05:42:13.807Z,100.00
2022-08-24T05:44:52.339Z,100.00
2022-08-24T05:47:25.036Z,100.00
2022-08-24T05:49:56.454Z,100.00
2022-08-24T05:52:27.065Z,95.32
2022-08-24T05:55:01.942Z,85.11
2022-08-24T05:57:38.188Z,78.58
2022-08-24T06:00:27.703Z,76.17
2022-08-24T06:02:57.805Z,74.04
2022-08-24T06:05:27.888Z,72.99
2022-08-24T06:07:58.023Z,74.30
2022-08-24T06:10:37.250Z,70.43
2022-08-24T06:13:09.374Z,67.42
2022-08-24T06:15:50.977Z,63.57
2022-08-24T06:18:29.608Z,59.43
2022-08-24T06:20:59.699Z,57.39
2022-08-24T06:23:30.352Z,58.03
2022-08-24T06:26:20.162Z,58.39
2022-08-24T06:28:52.994Z,57.65
2022-08-24T06:31:27.646Z,56.90
2022-08-24T06:33:58.177Z,55.29
2022-08-24T06:36:28.772Z,55.48
2022-08-24T06:39:00.495Z,55.05
2022-08-24T06:41:30.988Z,54.87
2022-08-24T06:44:01.215Z,54.71
2022-08-24T06:46:50.199Z,54.52
2022-08-24T06:49:20.951Z,55.21
2022-08-24T06:51:51.128Z,53.21
2022-08-24T06:54:22.623Z,51.17
2022-08-24T06:56:53.046Z,48.67
2022-08-24T06:59:23.112Z,47.69
2022-08-24T07:01:56.269Z,45.96
2022-08-24T07:04:31.191Z,44.10
2022-08-24T07:07:20.137Z,43.36
2022-08-24T07:09:51.002Z,43.54
2022-08-24T07:12:20.995Z,44.13
2022-08-24T07:14:50.995Z,43.70
2022-08-24T07:17:24.282Z,44.05
2022-08-24T07:19:54.354Z,43.41
2022-08-24T07:22:44.736Z,43.85
2022-08-24T07:25:16.138Z,42.39
2022-08-24T07:27:46.433Z,42.06
2022-08-24T07:30:26.926Z,42.00
2022-08-24T07:33:01.919Z,42.22
2022-08-24T07:35:36.307Z,42.31
2022-08-24T07:38:08.358Z,40.97
2022-08-24T07:40:58.443Z,40.33
2022-08-24T07:43:29.355Z,39.23
2022-08-24T07:45:59.495Z,36.75
2022-08-24T07:48:32.708Z,36.64
2022-08-24T07:51:11.539Z,35.74
2022-08-24T07:53:53.681Z,35.04
2022-08-24T07:56:28.632Z,33.92
2022-08-24T07:59:01.132Z,33.76
2022-08-24T08:01:31.253Z,32.67
2022-08-24T08:04:04.281Z,32.13
2022-08-24T08:06:34.490Z,32.12
2022-08-24T08:09:07.159Z,30.99
2022-08-24T08:11:37.229Z,30.36
2022-08-24T08:14:08.058Z,29.78
2022-08-24T08:16:38.433Z,29.34
2022-08-24T08:19:11.475Z,28.77
2022-08-24T08:21:59.668Z,27.75
2022-08-24T08:24:30.287Z,25.82
2022-08-24T08:27:01.567Z,25.81
2022-08-24T08:29:40.613Z,26.78
2022-08-24T08:32:14.809Z,26.15
2022-08-24T08:34:47.736Z,25.49
2022-08-24T08:37:18.870Z,25.14
2022-08-24T08:39:49.455Z,26.76
2022-08-24T08:42:41.244Z,25.92
2022-08-24T08:45:29.720Z,26.40
2022-08-24T08:49:21.856Z,26.41
2022-08-24T08:52:34.514Z,26.94
2022-08-24T08:55:29.291Z,25.39
2022-08-24T08:58:25.443Z,24.98
2022-08-24T09:01:08.055Z,25.26
2022-08-24T09:04:21.223Z,24.51
2022-08-24T09:07:34.093Z,24.40
2022-08-24T09:10:39.092Z,25.66
2022-08-24T09:13:27.520Z,25.77
2022-08-24T09:16:31.612Z,24.37
2022-08-24T09:19:32.063Z,23.74
2022-08-24T09:22:14.839Z,23.70
2022-08-24T09:25:26.286Z,23.77
2022-08-24T09:28:37.345Z,23.18
2022-08-24T09:31:56.420Z,23.73
2022-08-24T09:34:42.246Z,24.80
2022-08-24T09:37:46.537Z,23.96
2022-08-24T09:40:42.691Z,23.39
2022-08-24T09:43:53.470Z,23.78
2022-08-24T09:47:21.178Z,23.21
2022-08-24T09:50:34.694Z,23.04
2022-08-24T09:54:02.023Z,23.71
2022-08-24T09:57:12.455Z,24.18
2022-08-24T10:00:13.803Z,24.37
2022-08-24T10:03:04.186Z,24.10
2022-08-24T10:06:00.359Z,24.58
2022-08-24T10:08:51.430Z,26.28
2022-08-24T10:11:36.583Z,26.16
2022-08-24T10:14:23.815Z,24.08
2022-08-24T10:17:12.520Z,23.98
2022-08-24T10:20:10.449Z,23.91
2022-08-24T10:23:06.045Z,24.54
2022-08-24T10:25:43.478Z,25.71
2022-08-24T10:28:53.594Z,25.27
2022-08-24T10:31:37.025Z,25.27
2022-08-24T10:34:31.469Z,26.38
2022-08-24T10:37:28.935Z,26.42
2022-08-24T10:40:28.194Z,26.41
2022-08-24T10:43:36.597Z,24.67
2022-08-24T10:46:54.348Z,26.04
2022-08-24T10:50:22.101Z,24.96
2022-08-24T10:53:25.753Z,24.98
2022-08-24T10:56:19.122Z,24.12
2022-08-24T10:59:13.036Z,23.77
2022-08-24T11:02:01.017Z,23.47
2022-08-24T11:04:37.697Z,25.32
2022-08-24T11:07:19.339Z,25.10
2022-08-24T11:09:56.432Z,23.69
2022-08-24T11:12:32.340Z,24.89
2022-08-24T11:15:06.506Z,26.23
2022-08-24T11:17:37.592Z,26.32
2022-08-24T11:20:30.943Z,26.07
2022-08-24T11:23:07.907Z,26.39
2022-08-24T11:25:41.255Z,25.35
2022-08-24T11:28:26.063Z,24.69
2022-08-24T11:30:56.091Z,25.10
2022-08-24T11:33:35.835Z,25.61
2022-08-24T11:36:21.164Z,24.83
2022-08-24T11:39:17.835Z,25.81
2022-08-24T11:42:00.241Z,26.70
2022-08-24T11:44:44.159Z,26.73
2022-08-24T11:47:44.727Z,25.15
2022-08-24T11:50:33.725Z,23.78
2022-08-24T11:53:25.039Z,23.82
2022-08-24T11:56:20.400Z,22.75
2022-08-24T11:59:02.341Z,23.04
2022-08-24T12:01:44.518Z,22.93
2022-08-24T12:04:42.279Z,21.79
2022-08-24T12:07:31.905Z,22.45
2022-08-24T12:10:19.389Z,23.13
2022-08-24T12:13:02.811Z,23.13
2022-08-24T12:15:51.793Z,23.39
2022-08-24T12:18:33.351Z,23.01
2022-08-24T12:21:03.861Z,22.78
2022-08-24T12:23:40.456Z,23.49
2022-08-24T12:26:16.758Z,21.49
2022-08-24T12:28:56.083Z,20.88
2022-08-24T12:31:40.871Z,22.66
2022-08-24T12:34:19.452Z,24.00
2022-08-24T12:37:03.738Z,24.95
2022-08-24T12:39:49.292Z,24.25
2022-08-24T12:42:27.917Z,25.09
2022-08-24T12:45:09.628Z,25.47
2022-08-24T12:47:53.023Z,26.09
2022-08-24T12:50:32.355Z,26.43
2022-08-24T12:53:39.438Z,27.74
2022-08-24T12:56:40.068Z,27.62
2022-08-24T12:59:23.231Z,27.63
2022-08-24T13:02:05.764Z,27.53
2022-08-24T13:04:43.287Z,27.11
2022-08-24T13:07:31.790Z,26.81
2022-08-24T13:10:17.027Z,26.10
2022-08-24T13:13:25.936Z,25.86
2022-08-24T13:16:04.671Z,25.72
2022-08-24T13:19:18.651Z,26.29
2022-08-24T13:21:58.754Z,25.74
2022-08-24T13:25:24.778Z,24.76
2022-08-24T13:28:10.366Z,24.62
2022-08-24T13:31:12.839Z,24.81
2022-08-24T13:33:50.997Z,26.68
2022-08-24T13:36:52.357Z,26.47
2022-08-24T13:39:53.017Z,27.20
2022-08-24T13:43:09.416Z,26.34
2022-08-24T13:45:51.117Z,25.59
2022-08-24T13:48:48.548Z,25.22
2022-08-24T13:51:35.706Z,24.41
2022-08-24T13:54:29.501Z,25.26
2022-08-24T13:57:36.670Z,24.67
2022-08-24T14:00:35.445Z,25.99
2022-08-24T14:03:23.767Z,26.04
2022-08-24T14:05:59.879Z,26.59
2022-08-24T14:08:53.412Z,26.54
2022-08-24T14:11:50.503Z,25.35
2022-08-24T14:14:41.295Z,26.10
2022-08-24T14:17:37.791Z,25.73
2022-08-24T14:20:22.359Z,25.83
2022-08-24T14:23:06.002Z,24.45
2022-08-24T14:25:39.141Z,25.64
2022-08-24T14:28:39.007Z,24.95
2022-08-24T14:31:28.205Z,25.55
2022-08-24T14:34:25.020Z,24.97
2022-08-24T14:37:07.796Z,25.32
2022-08-24T14:39:48.239Z,25.49
2022-08-24T14:42:24.584Z,25.48
2022-08-24T14:45:06.864Z,26.67
2022-08-24T14:48:02.853Z,26.10
2022-08-24T14:50:41.318Z,27.65
2022-08-24T14:53:34.658Z,27.80
2022-08-24T14:56:17.128Z,28.59
2022-08-24T14:59:05.254Z,26.81
2022-08-24T15:01:50.890Z,26.47
2022-08-24T15:04:48.346Z,26.08
2022-08-24T15:07:36.453Z,26.35
2022-08-24T15:10:17.127Z,25.58
2022-08-24T15:12:58.991Z,25.83
2022-08-24T15:15:40.169Z,26.87
2022-08-24T15:18:27.713Z,26.43
2022-08-24T15:21:12.532Z,25.65
2022-08-24T15:23:57.039Z,25.22
2022-08-24T15:26:47.715Z,26.65
2022-08-24T15:29:22.606Z,26.22
2022-08-24T15:32:08.011Z,24.89
2022-08-24T15:34:46.493Z,25.62
2022-08-24T15:37:20.182Z,26.61
2022-08-24T15:39:50.272Z,27.44
2022-08-24T15:42:20.875Z,26.31
2022-08-24T15:44:53.592Z,27.56
2022-08-24T15:47:31.414Z,26.72
2022-08-24T15:50:09.587Z,26.27
2022-08-24T15:52:51.906Z,26.74
2022-08-24T15:55:41.152Z,25.27
2022-08-24T15:58:36.806Z,25.75
2022-08-24T16:01:37.798Z,25.72
2022-08-24T16:04:11.640Z,25.72
2022-08-24T16:06:47.956Z,25.84
2022-08-24T16:09:39.207Z,25.92
2022-08-24T16:12:16.495Z,26.45
2022-08-24T16:14:50.803Z,26.35
2022-08-24T16:17:30.552Z,25.54
2022-08-24T16:20:04.879Z,24.45
2022-08-24T16:22:43.180Z,23.77
2022-08-24T16:25:31.166Z,24.12
2022-08-24T16:28:11.782Z,25.23
2022-08-24T16:30:51.135Z,27.37
2022-08-24T16:33:44.199Z,26.48
2022-08-24T16:36:18.412Z,27.58
2022-08-24T16:38:54.191Z,28.95
2022-08-24T16:41:27.637Z,28.79
2022-08-24T16:43:57.823Z,28.65
2022-08-24T16:46:27.931Z,30.60
2022-08-24T16:48:58.068Z,31.34
2022-08-24T16:51:28.623Z,31.50
2022-08-24T16:54:01.269Z,30.63
2022-08-24T16:56:32.061Z,31.21
2022-08-24T16:59:02.332Z,31.32
2022-08-24T17:01:32.654Z,33.10
2022-08-24T17:04:02.686Z,32.46
2022-08-24T17:06:33.494Z,32.53
2022-08-24T17:09:06.697Z,30.95
2022-08-24T17:11:39.343Z,31.43
2022-08-24T17:14:09.638Z,31.64
2022-08-24T17:16:40.418Z,32.51
2022-08-24T17:19:17.007Z,34.29
2022-08-24T17:21:47.580Z,36.24
2022-08-24T17:24:25.250Z,38.42
2022-08-24T17:26:56.814Z,40.23
2022-08-24T17:29:28.549Z,41.36
2022-08-24T17:31:59.420Z,40.73
2022-08-24T17:34:30.308Z,40.48
2022-08-24T17:37:01.716Z,40.44
2022-08-24T17:39:35.035Z,41.01
2022-08-24T17:42:16.527Z,42.86
2022-08-24T17:44:55.312Z,44.49
2022-08-24T17:47:25.614Z,46.09
2022-08-24T17:49:56.966Z,47.49
2022-08-24T17:52:26.927Z,48.82
2022-08-24T17:54:59.579Z,50.07
2022-08-24T17:57:30.595Z,51.70
2022-08-24T18:00:00.758Z,53.29
2022-08-24T18:02:31.239Z,54.76
2022-08-24T18:05:01.286Z,56.33
2022-08-24T18:07:51.794Z,57.61
2022-08-24T18:10:28.197Z,58.71
2022-08-24T18:12:59.916Z,60.05
2022-08-24T18:15:36.121Z,61.54
2022-08-24T18:18:10.356Z,62.86
2022-08-24T18:20:44.105Z,64.27
2022-08-24T18:23:14.453Z,66.13
2022-08-24T18:25:54.884Z,66.50
2022-08-24T18:28:25.722Z,67.95
2022-08-24T18:30:56.440Z,69.07
2022-08-24T18:33:26.423Z,71.93
2022-08-24T18:35:56.922Z,73.74
2022-08-24T18:38:29.157Z,76.94
2022-08-24T18:41:04.253Z,78.28
2022-08-24T18:43:34.442Z,79.97
2022-08-24T18:46:04.902Z,79.78
2022-08-24T18:48:35.123Z,80.10
2022-08-24T18:51:06.187Z,81.06
2022-08-24T18:53:37.074Z,81.48
2022-08-24T18:56:12.415Z,82.21
2022-08-24T18:58:43.099Z,84.96
2022-08-24T19:01:14.906Z,85.21
2022-08-24T19:03:45.828Z,85.01
2022-08-24T19:06:15.818Z,86.44
2022-08-24T19:08:46.452Z,89.10
2022-08-24T19:11:21.666Z,89.83
2022-08-24T19:13:51.847Z,91.05
2022-08-24T19:16:22.277Z,92.75
2022-08-24T19:18:52.261Z,93.33
2022-08-24T19:21:22.753Z,93.18
2022-08-24T19:23:52.792Z,92.97
2022-08-24T19:26:25.492Z,93.41
2022-08-24T19:28:57.146Z,94.29
2022-08-24T19:31:31.035Z,96.40
2022-08-24T19:34:03.686Z,98.30
2022-08-24T19:36:33.881Z,98.53
2022-08-24T19:39:04.267Z,100.00
2022-08-24T19:41:41.151Z,100.00
2022-08-24T19:44:27.874Z,100.00
2022-08-24T19:46:59.415Z,100.00
2022-08-24T19:49:29.446Z,100.00
2022-08-24T19:52:01.179Z,100.00
2022-08-24T19:54:38.296Z,100.00
2022-08-24T19:57:48.509Z,100.00
2022-08-24T20:00:36.475Z,100.00
2022-08-24T20:03:08.741Z,100.00
2022-08-24T20:05:39.530Z,100.00
2022-08-24T20:08:11.128Z,100.00
2022-08-24T20:10:41.431Z,100.00
2022-08-24T20:13:14.071Z,100.00
2022-08-24T20:15:44.335Z,100.00
2022-08-24T20:18:14.668Z,99.81
2022-08-24T20:20:46.425Z,98.26
2022-08-24T20:23:19.326Z,97.65
2022-08-24T20:25:49.479Z,97.93
2022-08-24T20:28:29.286Z,98.06
2022-08-24T20:31:00.141Z,99.09
2022-08-24T20:33:30.444Z,100.00
2022-08-24T20:36:00.788Z,99.72
2022-08-24T20:38:32.250Z,100.00
2022-08-24T20:41:03.170Z,100.00
2022-08-24T20:43:35.857Z,100.00
2022-08-24T20:46:06.921Z,100.00
2022-08-24T20:48:41.493Z,100.00
2022-08-24T20:51:13.384Z,100.00
2022-08-24T20:53:43.488Z,100.00
2022-08-24T20:56:20.806Z,100.00
2022-08-24T20:59:04.476Z,100.00
2022-08-24T21:01:35.958Z,100.00
2022-08-24T21:04:07.265Z,100.00
2022-08-24T21:06:38.276Z,100.00
2022-08-24T21:09:10.391Z,100.00
2022-08-24T21:11:46.386Z,100.00
2022-08-24T21:14:19.973Z,100.00
2022-08-24T21:16:50.581Z,100.00
2022-08-24T21:19:20.626Z,100.00
2022-08-24T21:21:50.764Z,100.00
2022-08-24T21:24:21.069Z,100.00
2022-08-24T21:26:51.263Z,100.00
2022-08-24T21:29:23.910Z,100.00
2022-08-24T21:32:06.493Z,100.00
2022-08-24T21:34:45.631Z,100.00
2022-08-24T21:37:20.285Z,100.00
2022-08-24T21:39:50.576Z,100.00
2022-08-24T21:42:21.539Z,100.00
2022-08-24T21:44:54.082Z,100.00
2022-08-24T21:47:24.069Z,100.00
2022-08-24T21:49:54.751Z,100.00
2022-08-24T21:52:25.542Z,100.00
2022-08-24T21:54:56.377Z,100.00
2022-08-24T21:57:27.701Z,100.00
2022-08-24T22:00:00.263Z,100.00
2022-08-24T22:02:31.246Z,100.00
2022-08-24T22:05:01.728Z,100.00
2022-08-24T22:07:31.747Z,100.00
2022-08-24T22:10:02.185Z,100.00
2022-08-24T22:12:32.210Z,100.00
2022-08-24T22:15:05.091Z,100.00
2022-08-24T22:17:35.362Z,100.00
2022-08-24T22:20:06.967Z,100.00
2022-08-24T22:22:37.808Z,100.00
2022-08-24T22:25:12.788Z,100.00
2022-08-24T22:27:45.275Z,100.00
2022-08-24T22:30:21.510Z,100.00
2022-08-24T22:32:51.515Z,100.00
2022-08-24T22:35:21.766Z,100.00
2022-08-24T22:37:51.803Z,100.00
2022-08-24T22:40:22.164Z,100.00
2022-08-24T22:42:52.260Z,100.00
2022-08-24T22:45:25.052Z,100.00
2022-08-24T22:47:55.349Z,100.00
2022-08-24T22:50:25.356Z,100.00
2022-08-24T22:52:56.224Z,100.00
2022-08-24T22:55:26.211Z,100.00
2022-08-24T22:57:56.276Z,100.00
2022-08-24T23:00:28.860Z,100.00
2022-08-24T23:02:58.889Z,100.00
2022-08-24T23:05:29.200Z,100.00
2022-08-24T23:07:59.987Z,100.00
2022-08-24T23:10:30.466Z,100.00
2022-08-24T23:13:00.584Z,100.00
2022-08-24T23:15:33.461Z,100.00
2022-08-24T23:18:23.419Z,100.00
2022-08-24T23:20:50.814Z,100.00
2022-08-24T23:23:21.409Z,100.00
2022-08-24T23:25:51.940Z,100.00
2022-08-24T23:28:22.016Z,100.00
2022-08-24T23:30:54.587Z,100.00
2022-08-24T23:33:24.607Z,100.00
2022-08-24T23:36:00.142Z,100.00
2022-08-24T23:38:32.746Z,100.00
2022-08-24T23:41:02.885Z,100.00
2022-08-24T23:43:32.945Z,100.00
2022-08-24T23:46:06.325Z,100.00
2022-08-24T23:48:37.757Z,100.00
2022-08-24T23:51:10.362Z,100.00
2022-08-24T23:53:46.648Z,100.00
2022-08-24T23:56:21.712Z,100.00
2022-08-24T23:58:53.224Z,100.00
